createdAt,value
2022-08-17T00:00:12.799Z,9.93
2022-08-17T00:05:28.524Z,8.48
2022-08-17T00:07:56.362Z,8.38
2022-08-17T00:10:25.823Z,8.88
2022-08-17T00:12:54.434Z,9.93
2022-08-17T00:15:23.474Z,9.30
2022-08-17T00:17:52.781Z,9.18
2022-08-17T00:20:23.390Z,9.68
2022-08-17T00:23:07.119Z,10.00
2022-08-17T00:25:36.341Z,9.35
2022-08-17T00:28:04.686Z,10.55
2022-08-17T00:30:51.139Z,9.43
2022-08-17T00:33:22.169Z,8.95
2022-08-17T00:35:51.159Z,9.38
2022-08-17T00:38:19.234Z,9.93
2022-08-17T00:40:51.810Z,9.85
2022-08-17T00:43:29.274Z,9.60
2022-08-17T00:45:57.232Z,10.68
2022-08-17T00:48:29.134Z,9.32
2022-08-17T00:51:02.858Z,9.48
2022-08-17T00:53:33.501Z,10.40
2022-08-17T00:56:05.908Z,10.10
2022-08-17T00:58:36.601Z,10.30
2022-08-17T01:01:06.612Z,9.98
2022-08-17T01:03:35.671Z,9.98
2022-08-17T01:06:11.227Z,10.23
2022-08-17T01:08:41.076Z,10.48
2022-08-17T01:11:10.196Z,10.38
2022-08-17T01:13:41.992Z,9.73
2022-08-17T01:16:16.909Z,10.75
2022-08-17T01:18:46.262Z,10.55
2022-08-17T01:21:21.216Z,10.75
2022-08-17T01:23:50.435Z,10.90
2022-08-17T01:26:19.338Z,11.18
2022-08-17T01:28:54.154Z,10.75
2022-08-17T01:31:25.091Z,9.90
2022-08-17T01:33:53.307Z,10.48
2022-08-17T01:36:21.217Z,9.90
2022-08-17T01:38:50.350Z,10.93
2022-08-17T01:41:18.456Z,9.90
2022-08-17T01:43:49.849Z,10.60
2022-08-17T01:46:22.375Z,11.48
2022-08-17T01:48:51.370Z,11.23
2022-08-17T01:51:19.862Z,10.38
2022-08-17T01:53:51.625Z,11.63
2022-08-17T01:56:22.567Z,10.60
2022-08-17T01:58:50.419Z,9.68
2022-08-17T02:01:20.439Z,10.30
2022-08-17T02:03:56.190Z,10.18
2022-08-17T02:06:29.978Z,10.82
2022-08-17T02:09:03.005Z,10.77
2022-08-17T02:11:33.098Z,10.07
2022-08-17T02:14:03.106Z,11.07
2022-08-17T02:16:37.952Z,10.40
2022-08-17T02:19:09.237Z,11.35
2022-08-17T02:21:37.927Z,10.18
2022-08-17T02:24:07.967Z,10.88
2022-08-17T02:26:35.715Z,11.60
2022-08-17T02:29:04.076Z,11.23
2022-08-17T02:31:32.319Z,11.10
2022-08-17T02:34:04.516Z,11.73
2022-08-17T02:36:33.894Z,11.25
2022-08-17T02:39:02.161Z,11.45
2022-08-17T02:41:31.772Z,11.98
2022-08-17T02:43:59.640Z,11.23
2022-08-17T02:46:27.870Z,11.30
2022-08-17T02:48:55.682Z,10.95
2022-08-17T02:51:23.441Z,11.48
2022-08-17T02:53:51.656Z,11.85
2022-08-17T02:56:19.495Z,11.50
2022-08-17T02:58:48.589Z,12.00
2022-08-17T03:01:16.438Z,12.40
2022-08-17T03:03:44.722Z,12.02
2022-08-17T03:06:12.525Z,10.73
2022-08-17T03:08:40.610Z,10.82
2022-08-17T03:11:08.332Z,12.05
2022-08-17T03:13:36.330Z,11.98
2022-08-17T03:16:05.827Z,12.43
2022-08-17T03:18:33.516Z,11.50
2022-08-17T03:21:04.290Z,12.80
2022-08-17T03:23:33.769Z,12.13
2022-08-17T03:26:02.150Z,12.43
2022-08-17T03:28:30.103Z,11.88
2022-08-17T03:30:57.832Z,12.00
2022-08-17T03:33:26.927Z,12.50
2022-08-17T03:35:54.671Z,12.90
2022-08-17T03:38:23.223Z,13.45
2022-08-17T03:40:56.237Z,13.65
2022-08-17T03:43:28.833Z,12.95
2022-08-17T03:46:28.896Z,12.25
2022-08-17T03:49:21.824Z,13.80
2022-08-17T03:52:07.083Z,14.40
2022-08-17T03:54:52.792Z,13.60
2022-08-17T03:57:20.574Z,14.13
2022-08-17T03:59:48.527Z,14.52
2022-08-17T04:02:19.849Z,15.45
2022-08-17T04:04:50.910Z,14.80
2022-08-17T04:07:19.458Z,14.20
2022-08-17T04:09:47.249Z,14.45
2022-08-17T04:12:16.591Z,15.18
2022-08-17T04:14:52.137Z,12.40
2022-08-17T04:17:22.943Z,13.57
2022-08-17T04:19:52.064Z,12.80
2022-08-17T04:22:33.121Z,13.75
2022-08-17T04:25:05.300Z,12.00
2022-08-17T04:27:33.020Z,12.35
2022-08-17T04:30:00.752Z,12.63
2022-08-17T04:33:03.419Z,11.75
2022-08-17T04:35:21.231Z,12.70
2022-08-17T04:37:48.969Z,13.57
2022-08-17T04:40:34.815Z,13.40
2022-08-17T04:43:04.460Z,12.60
2022-08-17T04:45:32.727Z,13.65
2022-08-17T04:48:01.138Z,13.00
2022-08-17T04:50:30.333Z,13.60
2022-08-17T04:52:58.489Z,12.52
2022-08-17T04:55:26.370Z,12.00
2022-08-17T04:57:54.275Z,13.00
2022-08-17T05:00:22.337Z,12.25
2022-08-17T05:02:52.467Z,13.25
2022-08-17T05:05:21.696Z,13.57
2022-08-17T05:07:52.234Z,13.02
2022-08-17T05:10:20.076Z,12.48
2022-08-17T05:12:48.864Z,12.68
2022-08-17T05:15:16.846Z,13.30
2022-08-17T05:17:48.044Z,12.27
2022-08-17T05:20:15.851Z,13.20
2022-08-17T05:22:52.920Z,13.10
2022-08-17T05:25:25.604Z,13.52
2022-08-17T05:27:54.169Z,12.73
2022-08-17T05:30:22.673Z,11.10
2022-08-17T05:32:55.588Z,12.45
2022-08-17T05:35:24.043Z,12.35
2022-08-17T05:37:53.636Z,12.73
2022-08-17T05:40:25.887Z,12.55
2022-08-17T05:43:04.276Z,10.75
2022-08-17T05:45:55.957Z,11.80
2022-08-17T05:48:22.943Z,12.25
2022-08-17T05:51:21.442Z,11.60
2022-08-17T05:54:00.011Z,10.63
2022-08-17T05:56:44.864Z,11.35
2022-08-17T05:59:18.534Z,11.85
2022-08-17T06:02:00.006Z,11.68
2022-08-17T06:04:38.888Z,10.90
2022-08-17T06:07:16.050Z,10.93
2022-08-17T06:09:50.557Z,9.93
2022-08-17T06:12:41.108Z,10.77
2022-08-17T06:15:24.680Z,10.60
2022-08-17T06:17:55.666Z,10.07
2022-08-17T06:20:26.287Z,10.80
2022-08-17T06:23:03.730Z,10.57
2022-08-17T06:25:35.999Z,10.48
2022-08-17T06:28:06.424Z,10.07
2022-08-17T06:30:59.446Z,10.00
2022-08-17T06:33:34.163Z,10.63
2022-08-17T06:36:18.280Z,9.88
2022-08-17T06:39:00.206Z,10.80
2022-08-17T06:41:38.801Z,10.50
2022-08-17T06:44:49.798Z,10.88
2022-08-17T06:47:09.089Z,10.48
2022-08-17T06:49:44.314Z,10.93
2022-08-17T06:52:45.901Z,9.95
2022-08-17T06:55:18.991Z,11.80
2022-08-17T06:57:52.655Z,11.15
2022-08-17T07:00:23.863Z,11.85
2022-08-17T07:02:57.040Z,11.43
2022-08-17T07:05:27.958Z,9.90
2022-08-17T07:08:05.244Z,8.25
2022-08-17T07:10:40.098Z,8.85
2022-08-17T07:13:24.806Z,8.05
2022-08-17T07:15:58.558Z,7.93
2022-08-17T07:18:28.711Z,8.00
2022-08-17T07:21:04.023Z,8.30
2022-08-17T07:23:40.057Z,8.30
2022-08-17T07:26:10.036Z,8.57
2022-08-17T07:28:39.835Z,8.77
2022-08-17T07:31:09.279Z,8.00
2022-08-17T07:33:39.323Z,7.82
2022-08-17T07:36:29.805Z,7.97
2022-08-17T07:38:58.915Z,7.95
2022-08-17T07:41:58.010Z,8.05
2022-08-17T07:44:17.652Z,7.70
2022-08-17T07:47:08.622Z,7.78
2022-08-17T07:49:38.789Z,7.25
2022-08-17T07:52:48.098Z,8.20
2022-08-17T07:54:57.615Z,8.63
2022-08-17T07:57:33.070Z,8.68
2022-08-17T08:00:19.751Z,8.32
2022-08-17T08:03:05.947Z,9.10
2022-08-17T08:05:50.517Z,9.25
2022-08-17T08:08:28.191Z,9.70
2022-08-17T08:11:02.555Z,11.40
2022-08-17T08:13:32.231Z,10.10
2022-08-17T08:16:29.116Z,9.75
2022-08-17T08:18:59.297Z,11.40
2022-08-17T08:21:34.429Z,13.60
2022-08-17T08:24:14.494Z,12.18
2022-08-17T08:26:48.038Z,11.68
2022-08-17T08:29:29.341Z,12.38
2022-08-17T08:32:07.579Z,12.93
2022-08-17T08:35:01.827Z,12.90
2022-08-17T08:37:42.959Z,12.40
2022-08-17T08:40:28.119Z,12.90
2022-08-17T08:43:05.177Z,13.02
2022-08-17T08:45:44.587Z,13.85
2022-08-17T08:48:52.863Z,13.70
2022-08-17T08:51:27.691Z,13.65
2022-08-17T08:54:03.323Z,12.98
2022-08-17T08:56:38.199Z,11.80
2022-08-17T08:59:18.731Z,12.13
2022-08-17T09:01:57.086Z,13.55
2022-08-17T09:05:12.760Z,15.05
2022-08-17T09:07:41.955Z,12.43
2022-08-17T09:10:18.160Z,14.02
2022-08-17T09:12:52.641Z,14.60
2022-08-17T09:15:27.522Z,13.65
2022-08-17T09:19:03.191Z,17.48
2022-08-17T09:20:57.411Z,16.75
2022-08-17T09:23:33.539Z,16.05
2022-08-17T09:26:07.899Z,15.98
2022-08-17T09:28:39.196Z,14.50
2022-08-17T09:31:10.771Z,15.23
2022-08-17T09:33:44.321Z,16.08
2022-08-17T09:36:18.747Z,16.13
2022-08-17T09:38:55.032Z,15.88
2022-08-17T09:41:28.223Z,15.63
2022-08-17T09:44:02.165Z,15.85
2022-08-17T09:46:34.203Z,13.80
2022-08-17T09:49:14.518Z,15.00
2022-08-17T09:51:49.391Z,16.90
2022-08-17T09:54:38.612Z,16.00
2022-08-17T09:57:31.392Z,16.67
2022-08-17T10:00:16.932Z,15.80
2022-08-17T10:03:11.782Z,16.85
2022-08-17T10:05:46.644Z,16.83
2022-08-17T10:08:27.709Z,18.63
2022-08-17T10:11:06.791Z,17.80
2022-08-17T10:13:52.721Z,16.83
2022-08-17T10:16:27.034Z,17.27
2022-08-17T10:19:06.113Z,17.17
2022-08-17T10:22:01.421Z,17.75
2022-08-17T10:25:23.154Z,17.17
2022-08-17T10:27:56.301Z,18.20
2022-08-17T10:30:27.744Z,16.55
2022-08-17T10:32:59.257Z,18.38
2022-08-17T10:35:35.909Z,20.58
2022-08-17T10:38:31.559Z,22.35
2022-08-17T10:41:07.114Z,22.98
2022-08-17T10:44:02.182Z,22.08
2022-08-17T10:46:54.204Z,25.52
2022-08-17T10:49:33.888Z,28.63
2022-08-17T10:52:03.621Z,26.38
2022-08-17T10:54:58.072Z,29.85
2022-08-17T10:57:42.681Z,30.17
2022-08-17T11:00:36.311Z,31.13
2022-08-17T11:03:18.778Z,32.65
2022-08-17T11:05:58.909Z,30.63
2022-08-17T11:09:11.828Z,32.55
2022-08-17T11:12:14.179Z,29.60
2022-08-17T11:15:00.359Z,30.60
2022-08-17T11:18:04.573Z,35.53
2022-08-17T11:20:54.828Z,37.78
2022-08-17T11:23:48.363Z,37.72
2022-08-17T11:26:26.202Z,33.95
2022-08-17T11:28:58.904Z,38.15
2022-08-17T11:31:39.322Z,40.67
2022-08-17T11:34:15.285Z,37.20
2022-08-17T11:37:21.688Z,42.40
2022-08-17T11:40:18.301Z,46.22
2022-08-17T11:43:05.791Z,43.17
2022-08-17T11:45:58.129Z,44.47
2022-08-17T11:48:54.197Z,41.55
2022-08-17T11:51:35.928Z,48.75
2022-08-17T11:54:31.776Z,48.78
2022-08-17T11:56:58.970Z,48.75
2022-08-17T12:00:10.185Z,52.70
2022-08-17T12:02:48.271Z,54.13
2022-08-17T12:05:35.199Z,53.30
2022-08-17T12:08:15.940Z,50.83
2022-08-17T12:11:01.495Z,59.67
2022-08-17T12:13:39.567Z,53.88
2022-08-17T12:16:09.994Z,57.85
2022-08-17T12:18:39.840Z,59.22
2022-08-17T12:21:20.916Z,61.22
2022-08-17T12:23:57.688Z,58.42
2022-08-17T12:26:30.395Z,61.65
2022-08-17T12:29:02.165Z,59.25
2022-08-17T12:31:34.805Z,60.92
2022-08-17T12:34:03.481Z,58.63
2022-08-17T12:36:34.500Z,55.92
2022-08-17T12:39:12.986Z,59.42
2022-08-17T12:41:45.097Z,65.07
2022-08-17T12:44:16.269Z,46.92
2022-08-17T12:46:51.322Z,57.93
2022-08-17T12:49:27.532Z,55.22
2022-08-17T12:52:04.213Z,57.15
2022-08-17T12:54:40.546Z,51.95
2022-08-17T12:57:14.005Z,46.45
2022-08-17T12:59:44.281Z,51.95
2022-08-17T13:02:22.143Z,49.22
2022-08-17T13:04:50.703Z,50.85
2022-08-17T13:07:35.283Z,49.83
2022-08-17T13:10:03.517Z,56.10
2022-08-17T13:12:34.361Z,57.15
2022-08-17T13:15:02.555Z,48.00
2022-08-17T13:17:34.623Z,51.58
2022-08-17T13:20:04.758Z,50.85
2022-08-17T13:22:34.152Z,56.65
2022-08-17T13:25:07.447Z,57.22
2022-08-17T13:27:35.316Z,47.57
2022-08-17T13:30:08.099Z,47.53
2022-08-17T13:32:43.773Z,46.47
2022-08-17T13:35:39.850Z,52.85
2022-08-17T13:38:12.366Z,48.22
2022-08-17T13:43:10.773Z,51.10
2022-08-17T13:46:01.252Z,55.35
2022-08-17T13:48:30.294Z,53.67
2022-08-17T13:51:18.315Z,55.88
2022-08-17T13:53:55.867Z,50.38
2022-08-17T13:56:38.386Z,46.72
2022-08-17T13:59:11.110Z,55.00
2022-08-17T14:01:42.438Z,59.05
2022-08-17T14:04:11.898Z,55.58
2022-08-17T14:06:53.987Z,55.88
2022-08-17T14:09:27.405Z,59.55
2022-08-17T14:11:57.777Z,57.38
2022-08-17T14:14:26.831Z,57.88
2022-08-17T14:16:55.453Z,54.30
2022-08-17T14:19:23.589Z,57.35
2022-08-17T14:21:56.364Z,59.28
2022-08-17T14:24:28.972Z,44.92
2022-08-17T14:26:58.255Z,59.55
2022-08-17T14:29:29.377Z,59.35
2022-08-17T14:31:58.160Z,54.00
2022-08-17T14:34:26.814Z,55.30
2022-08-17T14:36:54.485Z,48.85
2022-08-17T14:39:22.344Z,54.53
2022-08-17T14:41:52.965Z,57.42
2022-08-17T14:44:20.728Z,53.75
2022-08-17T14:46:50.487Z,56.40
2022-08-17T14:49:20.671Z,57.22
2022-08-17T14:51:48.636Z,56.40
2022-08-17T14:54:33.135Z,48.30
2022-08-17T14:57:23.096Z,52.40
2022-08-17T14:59:54.572Z,49.70
2022-08-17T15:02:29.718Z,52.67
2022-08-17T15:05:00.651Z,54.65
2022-08-17T15:07:30.517Z,54.53
2022-08-17T15:09:58.888Z,50.85
2022-08-17T15:12:34.345Z,49.38
2022-08-17T15:15:04.674Z,48.58
2022-08-17T15:17:45.149Z,52.72
2022-08-17T15:20:15.755Z,45.97
2022-08-17T15:22:45.826Z,46.00
2022-08-17T15:25:15.252Z,47.47
2022-08-17T15:27:44.374Z,48.90
2022-08-17T15:30:13.111Z,42.83
2022-08-17T15:32:51.405Z,42.88
2022-08-17T15:35:26.904Z,43.00
2022-08-17T15:37:57.388Z,42.08
2022-08-17T15:40:25.194Z,43.47
2022-08-17T15:42:54.396Z,37.15
2022-08-17T15:45:26.613Z,38.45
2022-08-17T15:47:54.349Z,38.95
2022-08-17T15:50:22.375Z,36.83
2022-08-17T15:52:56.271Z,36.22
2022-08-17T15:55:24.423Z,35.05
2022-08-17T15:57:53.225Z,31.27
2022-08-17T16:00:23.929Z,32.22
2022-08-17T16:03:46.438Z,29.48
2022-08-17T16:05:40.689Z,31.15
2022-08-17T16:08:10.861Z,32.33
2022-08-17T16:10:38.957Z,40.30
2022-08-17T16:13:17.425Z,38.80
2022-08-17T16:15:56.863Z,42.03
2022-08-17T16:18:28.186Z,44.33
2022-08-17T16:20:56.001Z,43.72
2022-08-17T16:23:24.394Z,50.50
2022-08-17T16:25:53.858Z,47.83
2022-08-17T16:28:35.820Z,38.17
2022-08-17T16:31:05.848Z,40.10
2022-08-17T16:33:36.671Z,46.70
2022-08-17T16:36:05.044Z,46.08
2022-08-17T16:38:32.790Z,44.30
2022-08-17T16:41:00.723Z,47.55
2022-08-17T16:43:29.225Z,50.03
2022-08-17T16:45:57.090Z,49.05
2022-08-17T16:48:27.704Z,41.28
2022-08-17T16:51:02.966Z,46.20
2022-08-17T16:53:31.749Z,46.65
2022-08-17T16:55:59.410Z,45.58
2022-08-17T16:58:27.179Z,47.95
2022-08-17T17:00:59.454Z,47.15
2022-08-17T17:03:31.880Z,45.17
2022-08-17T17:06:08.089Z,45.15
2022-08-17T17:08:44.111Z,46.00
2022-08-17T17:11:17.644Z,48.00
2022-08-17T17:13:49.635Z,44.72
2022-08-17T17:19:01.808Z,49.78
2022-08-17T17:21:36.318Z,46.47
2022-08-17T17:24:11.110Z,51.60
2022-08-17T17:26:55.151Z,49.78
2022-08-17T17:29:45.270Z,51.85
2022-08-17T17:34:55.623Z,48.30
2022-08-17T17:37:28.415Z,54.33
2022-08-17T17:40:01.032Z,48.85
2022-08-17T17:42:32.304Z,50.42
2022-08-17T17:45:05.568Z,49.83
2022-08-17T17:47:34.430Z,44.33
2022-08-17T17:50:06.656Z,38.35
2022-08-17T17:52:40.943Z,40.47
2022-08-17T17:55:24.205Z,38.45
2022-08-17T17:58:01.918Z,37.78
2022-08-17T18:00:38.294Z,38.90
2022-08-17T18:03:24.360Z,35.13
2022-08-17T18:06:15.031Z,37.40
2022-08-17T18:08:58.989Z,35.55
2022-08-17T18:11:45.603Z,37.22
2022-08-17T18:14:29.913Z,32.90
2022-08-17T18:16:59.945Z,31.67
2022-08-17T18:19:29.817Z,32.47
2022-08-17T18:22:14.849Z,30.33
2022-08-17T18:24:45.606Z,29.15
2022-08-17T18:27:24.173Z,31.67
2022-08-17T18:29:53.868Z,29.83
2022-08-17T18:32:41.372Z,27.35
2022-08-17T18:35:32.632Z,28.23
2022-08-17T18:38:20.834Z,25.70
2022-08-17T18:40:59.770Z,28.55
2022-08-17T18:43:43.789Z,29.83
2022-08-17T18:46:29.446Z,28.15
2022-08-17T18:48:59.658Z,32.00
2022-08-17T18:51:41.492Z,29.30
2022-08-17T18:54:20.722Z,57.22
2022-08-17T18:56:54.609Z,35.83
2022-08-17T18:59:30.226Z,30.88
2022-08-17T19:02:16.069Z,29.63
2022-08-17T19:04:59.743Z,29.85
2022-08-17T19:07:31.325Z,31.63
2022-08-17T19:10:19.874Z,29.85
2022-08-17T19:12:52.770Z,32.67
2022-08-17T19:15:28.894Z,33.30
2022-08-17T19:18:01.735Z,33.95
2022-08-17T19:20:33.109Z,35.15
2022-08-17T19:23:11.159Z,36.08
2022-08-17T19:25:48.293Z,36.90
2022-08-17T19:28:22.998Z,35.55
2022-08-17T19:30:55.887Z,40.17
2022-08-17T19:33:23.891Z,41.63
2022-08-17T19:36:02.346Z,42.20
2022-08-17T19:38:41.281Z,40.85
2022-08-17T19:41:17.306Z,41.53
2022-08-17T19:43:59.323Z,42.70
2022-08-17T19:46:35.628Z,43.33
2022-08-17T19:49:11.715Z,43.55
2022-08-17T19:51:48.580Z,45.63
2022-08-17T19:54:27.031Z,45.50
2022-08-17T19:57:02.828Z,43.70
2022-08-17T19:59:49.041Z,43.00
2022-08-17T20:02:27.352Z,45.60
2022-08-17T20:05:00.210Z,49.78
2022-08-17T20:07:43.285Z,46.10
2022-08-17T20:10:39.179Z,49.38
2022-08-17T20:13:10.972Z,47.78
2022-08-17T20:15:42.862Z,48.97
2022-08-17T20:18:21.642Z,46.67
2022-08-17T20:20:58.066Z,54.00
2022-08-17T20:23:45.356Z,52.13
2022-08-17T20:26:20.519Z,54.40
2022-08-17T20:29:37.705Z,55.00
2022-08-17T20:32:29.670Z,56.83
2022-08-17T20:35:20.237Z,47.83
2022-08-17T20:37:58.349Z,56.38
2022-08-17T20:40:30.051Z,49.35
2022-08-17T20:42:59.345Z,56.92
2022-08-17T20:46:08.752Z,62.70
2022-08-17T20:48:41.103Z,58.92
2022-08-17T20:51:23.714Z,60.40
2022-08-17T20:56:50.115Z,60.10
2022-08-17T20:59:55.192Z,60.92
2022-08-17T21:02:26.718Z,62.22
2022-08-17T21:05:30.274Z,57.72
2022-08-17T21:08:02.132Z,54.53
2022-08-17T21:10:38.466Z,57.17
2022-08-17T21:13:35.902Z,61.97
2022-08-17T21:16:11.219Z,60.28
2022-08-17T21:18:51.458Z,65.00
2022-08-17T21:21:27.037Z,60.22
2022-08-17T21:24:20.391Z,64.18
2022-08-17T21:26:58.142Z,67.57
2022-08-17T21:29:31.192Z,66.32
2022-08-17T21:32:23.738Z,64.20
2022-08-17T21:35:25.708Z,71.88
2022-08-17T21:38:04.354Z,65.70
2022-08-17T21:40:33.947Z,63.60
2022-08-17T21:43:17.935Z,68.93
2022-08-17T21:45:59.962Z,71.30
2022-08-17T21:48:30.876Z,70.40
2022-08-17T21:51:04.682Z,58.83
2022-08-17T21:53:40.988Z,69.95
2022-08-17T21:56:10.938Z,67.72
2022-08-17T21:58:40.982Z,74.72
2022-08-17T22:01:24.645Z,69.57
2022-08-17T22:03:59.077Z,74.03
2022-08-17T22:06:34.137Z,78.50
2022-08-17T22:09:07.431Z,71.68
2022-08-17T22:11:53.267Z,66.82
2022-08-17T22:14:22.936Z,81.05
2022-08-17T22:17:10.686Z,73.32
2022-08-17T22:19:39.449Z,81.50
2022-08-17T22:22:11.938Z,79.75
2022-08-17T22:24:38.766Z,82.25
2022-08-17T22:27:12.918Z,85.35
2022-08-17T22:30:00.977Z,84.55
2022-08-17T22:32:38.923Z,86.72
2022-08-17T22:35:29.205Z,86.00
2022-08-17T22:37:58.924Z,82.20
2022-08-17T22:40:30.435Z,70.43
2022-08-17T22:42:59.827Z,83.22
2022-08-17T22:45:29.780Z,85.15
2022-08-17T22:48:02.149Z,85.45
2022-08-17T22:50:33.227Z,70.25
2022-08-17T22:53:22.579Z,80.85
2022-08-17T22:56:11.967Z,65.95
2022-08-17T22:59:02.330Z,72.88
2022-08-17T23:01:32.508Z,79.63
2022-08-17T23:04:02.905Z,67.30
2022-08-17T23:06:33.691Z,68.82
2022-08-17T23:09:04.418Z,74.88
2022-08-17T23:11:48.827Z,77.35
2022-08-17T23:14:19.274Z,79.50
2022-08-17T23:16:47.126Z,78.00
2022-08-17T23:19:17.052Z,71.25
2022-08-17T23:21:45.721Z,81.72
2022-08-17T23:24:20.484Z,68.20
2022-08-17T23:26:48.266Z,67.53
2022-08-17T23:29:16.066Z,65.35
2022-08-17T23:31:44.018Z,79.50
2022-08-17T23:34:15.074Z,66.68
2022-08-17T23:36:49.805Z,77.45
2022-08-17T23:39:27.336Z,78.85
2022-08-17T23:41:58.189Z,57.95
2022-08-17T23:44:26.783Z,66.80
2022-08-17T23:46:55.518Z,63.15
2022-08-17T23:49:23.400Z,59.38
2022-08-17T23:51:53.605Z,73.70
2022-08-17T23:54:27.817Z,62.00
2022-08-17T23:56:55.579Z,75.88
2022-08-17T23:59:25.210Z,72.45
